sensor_id;sensor_type;location;lat;lon;timestamp;P1;durP1;ratioP1;P2;durP2;ratioP2
6392;SDS011;3229;42.674;23.282;2023-05-29T00:00:04;6.10;;;4.87;;
6392;SDS011;3229;42.674;23.282;2023-05-29T00:02:33;6.07;;;4.63;;
6392;SDS011;3229;42.674;23.282;2023-05-29T00:04:59;4.90;;;4.50;;
6392;SDS011;3229;42.674;23.282;2023-05-29T00:07:28;7.03;;;4.90;;
6392;SDS011;3229;42.674;23.282;2023-05-29T00:09:55;4.80;;;4.40;;
6392;SDS011;3229;42.674;23.282;2023-05-29T00:12:22;6.83;;;4.43;;
6392;SDS011;3229;42.674;23.282;2023-05-29T00:14:50;7.13;;;4.67;;
6392;SDS011;3229;42.674;23.282;2023-05-29T00:17:17;6.13;;;4.43;;
6392;SDS011;3229;42.674;23.282;2023-05-29T00:19:43;9.10;;;4.67;;
6392;SDS011;3229;42.674;23.282;2023-05-29T00:22:10;6.20;;;4.30;;
6392;SDS011;3229;42.674;23.282;2023-05-29T00:24:37;5.27;;;4.77;;
6392;SDS011;3229;42.674;23.282;2023-05-29T00:27:04;7.57;;;4.67;;
6392;SDS011;3229;42.674;23.282;2023-05-29T00:29:31;4.83;;;4.20;;
6392;SDS011;3229;42.674;23.282;2023-05-29T00:31:59;5.63;;;4.70;;
6392;SDS011;3229;42.674;23.282;2023-05-29T00:34:26;5.77;;;4.70;;
6392;SDS011;3229;42.674;23.282;2023-05-29T00:36:53;4.93;;;4.43;;
6392;SDS011;3229;42.674;23.282;2023-05-29T00:39:21;4.77;;;4.37;;
6392;SDS011;3229;42.674;23.282;2023-05-29T00:41:48;5.57;;;4.40;;
6392;SDS011;3229;42.674;23.282;2023-05-29T00:44:16;5.50;;;5.00;;
6392;SDS011;3229;42.674;23.282;2023-05-29T00:46:43;7.60;;;5.07;;
6392;SDS011;3229;42.674;23.282;2023-05-29T00:49:11;6.40;;;4.60;;
6392;SDS011;3229;42.674;23.282;2023-05-29T00:51:39;5.00;;;4.33;;
6392;SDS011;3229;42.674;23.282;2023-05-29T00:54:08;6.40;;;5.07;;
6392;SDS011;3229;42.674;23.282;2023-05-29T00:56:39;8.53;;;5.33;;
6392;SDS011;3229;42.674;23.282;2023-05-29T00:59:08;5.83;;;4.40;;
6392;SDS011;3229;42.674;23.282;2023-05-29T01:01:36;6.00;;;4.93;;
6392;SDS011;3229;42.674;23.282;2023-05-29T01:04:03;8.27;;;5.13;;
6392;SDS011;3229;42.674;23.282;2023-05-29T01:06:33;7.73;;;4.63;;
6392;SDS011;3229;42.674;23.282;2023-05-29T01:09:00;7.97;;;4.97;;
6392;SDS011;3229;42.674;23.282;2023-05-29T01:11:30;5.10;;;4.70;;
6392;SDS011;3229;42.674;23.282;2023-05-29T01:14:03;6.30;;;5.10;;
6392;SDS011;3229;42.674;23.282;2023-05-29T01:16:35;5.17;;;4.67;;
6392;SDS011;3229;42.674;23.282;2023-05-29T01:19:08;4.87;;;4.33;;
6392;SDS011;3229;42.674;23.282;2023-05-29T01:21:58;11.10;;;5.17;;
6392;SDS011;3229;42.674;23.282;2023-05-29T01:24:42;7.40;;;5.33;;
6392;SDS011;3229;42.674;23.282;2023-05-29T01:27:17;5.13;;;4.50;;
6392;SDS011;3229;42.674;23.282;2023-05-29T01:29:46;6.60;;;4.83;;
6392;SDS011;3229;42.674;23.282;2023-05-29T01:32:13;5.57;;;4.77;;
6392;SDS011;3229;42.674;23.282;2023-05-29T01:34:40;8.57;;;5.07;;
6392;SDS011;3229;42.674;23.282;2023-05-29T01:37:07;5.53;;;4.80;;
6392;SDS011;3229;42.674;23.282;2023-05-29T01:39:34;5.43;;;4.83;;
6392;SDS011;3229;42.674;23.282;2023-05-29T01:42:01;6.60;;;4.93;;
6392;SDS011;3229;42.674;23.282;2023-05-29T01:44:30;5.67;;;5.07;;
6392;SDS011;3229;42.674;23.282;2023-05-29T01:46:58;5.53;;;5.03;;
6392;SDS011;3229;42.674;23.282;2023-05-29T01:49:25;7.43;;;4.80;;
6392;SDS011;3229;42.674;23.282;2023-05-29T01:51:54;6.30;;;4.93;;
6392;SDS011;3229;42.674;23.282;2023-05-29T01:54:21;9.90;;;5.43;;
6392;SDS011;3229;42.674;23.282;2023-05-29T01:56:48;5.33;;;4.83;;
6392;SDS011;3229;42.674;23.282;2023-05-29T01:59:16;7.97;;;4.77;;
6392;SDS011;3229;42.674;23.282;2023-05-29T02:01:45;5.07;;;4.50;;
6392;SDS011;3229;42.674;23.282;2023-05-29T02:04:14;5.70;;;4.97;;
6392;SDS011;3229;42.674;23.282;2023-05-29T02:06:40;8.63;;;5.27;;
6392;SDS011;3229;42.674;23.282;2023-05-29T02:09:07;5.63;;;4.47;;
6392;SDS011;3229;42.674;23.282;2023-05-29T02:11:34;5.87;;;5.00;;
6392;SDS011;3229;42.674;23.282;2023-05-29T02:14:01;9.33;;;5.57;;
6392;SDS011;3229;42.674;23.282;2023-05-29T02:16:29;4.87;;;4.47;;
6392;SDS011;3229;42.674;23.282;2023-05-29T02:18:59;6.63;;;5.63;;
6392;SDS011;3229;42.674;23.282;2023-05-29T02:21:27;6.77;;;5.07;;
6392;SDS011;3229;42.674;23.282;2023-05-29T02:23:54;6.07;;;5.27;;
6392;SDS011;3229;42.674;23.282;2023-05-29T02:26:20;5.30;;;4.80;;
6392;SDS011;3229;42.674;23.282;2023-05-29T02:28:47;6.53;;;5.30;;
6392;SDS011;3229;42.674;23.282;2023-05-29T02:31:14;9.47;;;5.03;;
6392;SDS011;3229;42.674;23.282;2023-05-29T02:33:41;5.70;;;5.17;;
6392;SDS011;3229;42.674;23.282;2023-05-29T02:36:09;6.27;;;4.77;;
6392;SDS011;3229;42.674;23.282;2023-05-29T02:38:36;5.83;;;5.20;;
6392;SDS011;3229;42.674;23.282;2023-05-29T02:41:03;9.47;;;5.33;;
6392;SDS011;3229;42.674;23.282;2023-05-29T02:43:31;6.17;;;5.57;;
6392;SDS011;3229;42.674;23.282;2023-05-29T02:45:57;6.23;;;5.10;;
6392;SDS011;3229;42.674;23.282;2023-05-29T02:48:24;6.20;;;5.60;;
6392;SDS011;3229;42.674;23.282;2023-05-29T02:50:51;6.47;;;5.80;;
6392;SDS011;3229;42.674;23.282;2023-05-29T02:53:19;5.80;;;5.30;;
6392;SDS011;3229;42.674;23.282;2023-05-29T02:55:46;5.70;;;5.20;;
6392;SDS011;3229;42.674;23.282;2023-05-29T02:58:13;7.17;;;4.93;;
6392;SDS011;3229;42.674;23.282;2023-05-29T03:00:41;6.57;;;5.10;;
6392;SDS011;3229;42.674;23.282;2023-05-29T03:03:09;6.27;;;5.07;;
6392;SDS011;3229;42.674;23.282;2023-05-29T03:05:35;5.67;;;5.10;;
6392;SDS011;3229;42.674;23.282;2023-05-29T03:08:02;9.00;;;5.70;;
6392;SDS011;3229;42.674;23.282;2023-05-29T03:10:30;5.50;;;5.00;;
6392;SDS011;3229;42.674;23.282;2023-05-29T03:12:57;5.73;;;5.13;;
6392;SDS011;3229;42.674;23.282;2023-05-29T03:15:24;5.20;;;4.50;;
6392;SDS011;3229;42.674;23.282;2023-05-29T03:17:51;7.47;;;5.67;;
6392;SDS011;3229;42.674;23.282;2023-05-29T03:20:17;6.93;;;5.27;;
6392;SDS011;3229;42.674;23.282;2023-05-29T03:22:45;5.73;;;5.23;;
6392;SDS011;3229;42.674;23.282;2023-05-29T03:25:12;6.60;;;6.00;;
6392;SDS011;3229;42.674;23.282;2023-05-29T03:27:41;6.10;;;5.50;;
6392;SDS011;3229;42.674;23.282;2023-05-29T03:30:08;8.00;;;5.83;;
6392;SDS011;3229;42.674;23.282;2023-05-29T03:32:35;8.77;;;5.70;;
6392;SDS011;3229;42.674;23.282;2023-05-29T03:35:02;9.97;;;6.23;;
6392;SDS011;3229;42.674;23.282;2023-05-29T03:37:29;7.80;;;6.27;;
6392;SDS011;3229;42.674;23.282;2023-05-29T03:39:56;9.03;;;5.93;;
6392;SDS011;3229;42.674;23.282;2023-05-29T03:42:23;10.43;;;6.73;;
6392;SDS011;3229;42.674;23.282;2023-05-29T03:44:51;8.00;;;6.23;;
6392;SDS011;3229;42.674;23.282;2023-05-29T03:47:18;9.60;;;7.03;;
6392;SDS011;3229;42.674;23.282;2023-05-29T03:49:45;8.80;;;6.30;;
6392;SDS011;3229;42.674;23.282;2023-05-29T03:52:12;9.90;;;7.13;;
6392;SDS011;3229;42.674;23.282;2023-05-29T03:54:39;9.60;;;7.43;;
6392;SDS011;3229;42.674;23.282;2023-05-29T03:57:06;12.63;;;7.97;;
6392;SDS011;3229;42.674;23.282;2023-05-29T03:59:34;8.37;;;6.97;;
6392;SDS011;3229;42.674;23.282;2023-05-29T04:02:02;8.80;;;7.20;;
6392;SDS011;3229;42.674;23.282;2023-05-29T04:04:28;11.47;;;6.73;;
6392;SDS011;3229;42.674;23.282;2023-05-29T04:06:55;9.20;;;6.73;;
6392;SDS011;3229;42.674;23.282;2023-05-29T04:09:22;10.67;;;7.37;;
6392;SDS011;3229;42.674;23.282;2023-05-29T04:11:49;12.07;;;7.93;;
6392;SDS011;3229;42.674;23.282;2023-05-29T04:14:17;9.43;;;6.33;;
6392;SDS011;3229;42.674;23.282;2023-05-29T04:16:44;9.40;;;6.73;;
6392;SDS011;3229;42.674;23.282;2023-05-29T04:19:12;8.00;;;6.90;;
6392;SDS011;3229;42.674;23.282;2023-05-29T04:21:39;9.43;;;7.07;;
6392;SDS011;3229;42.674;23.282;2023-05-29T04:24:06;10.10;;;7.70;;
6392;SDS011;3229;42.674;23.282;2023-05-29T04:26:33;13.50;;;7.27;;
6392;SDS011;3229;42.674;23.282;2023-05-29T04:28:59;9.03;;;6.33;;
6392;SDS011;3229;42.674;23.282;2023-05-29T04:31:27;10.87;;;6.53;;
6392;SDS011;3229;42.674;23.282;2023-05-29T04:33:54;8.80;;;6.63;;
6392;SDS011;3229;42.674;23.282;2023-05-29T04:36:23;7.67;;;6.10;;
6392;SDS011;3229;42.674;23.282;2023-05-29T04:38:51;12.03;;;6.73;;
6392;SDS011;3229;42.674;23.282;2023-05-29T04:41:18;10.93;;;6.77;;
6392;SDS011;3229;42.674;23.282;2023-05-29T04:43:48;12.43;;;8.13;;
6392;SDS011;3229;42.674;23.282;2023-05-29T04:46:16;10.83;;;6.67;;
6392;SDS011;3229;42.674;23.282;2023-05-29T04:48:43;8.27;;;6.33;;
6392;SDS011;3229;42.674;23.282;2023-05-29T04:51:09;9.70;;;6.23;;
6392;SDS011;3229;42.674;23.282;2023-05-29T04:53:38;11.77;;;7.10;;
6392;SDS011;3229;42.674;23.282;2023-05-29T04:56:06;12.93;;;7.37;;
6392;SDS011;3229;42.674;23.282;2023-05-29T04:58:33;11.87;;;7.93;;
6392;SDS011;3229;42.674;23.282;2023-05-29T05:01:00;9.20;;;7.50;;
6392;SDS011;3229;42.674;23.282;2023-05-29T05:03:28;12.27;;;7.20;;
6392;SDS011;3229;42.674;23.282;2023-05-29T05:05:56;10.80;;;7.20;;
6392;SDS011;3229;42.674;23.282;2023-05-29T05:08:23;12.33;;;8.27;;
6392;SDS011;3229;42.674;23.282;2023-05-29T05:10:51;11.33;;;7.23;;
6392;SDS011;3229;42.674;23.282;2023-05-29T05:13:18;12.87;;;7.10;;
6392;SDS011;3229;42.674;23.282;2023-05-29T05:15:45;10.20;;;7.23;;
6392;SDS011;3229;42.674;23.282;2023-05-29T05:18:12;13.07;;;8.13;;
6392;SDS011;3229;42.674;23.282;2023-05-29T05:20:38;14.90;;;8.40;;
6392;SDS011;3229;42.674;23.282;2023-05-29T05:23:05;16.70;;;8.37;;
6392;SDS011;3229;42.674;23.282;2023-05-29T05:25:33;12.80;;;8.57;;
6392;SDS011;3229;42.674;23.282;2023-05-29T05:28:01;20.47;;;8.73;;
6392;SDS011;3229;42.674;23.282;2023-05-29T05:30:29;12.37;;;9.30;;
6392;SDS011;3229;42.674;23.282;2023-05-29T05:32:56;16.53;;;8.53;;
6392;SDS011;3229;42.674;23.282;2023-05-29T05:35:23;18.03;;;9.03;;
6392;SDS011;3229;42.674;23.282;2023-05-29T05:37:50;15.53;;;8.33;;
6392;SDS011;3229;42.674;23.282;2023-05-29T05:40:17;17.27;;;8.00;;
6392;SDS011;3229;42.674;23.282;2023-05-29T05:42:45;14.70;;;7.80;;
6392;SDS011;3229;42.674;23.282;2023-05-29T05:45:13;11.53;;;8.17;;
6392;SDS011;3229;42.674;23.282;2023-05-29T05:47:40;16.10;;;8.43;;
6392;SDS011;3229;42.674;23.282;2023-05-29T05:50:07;14.50;;;8.03;;
6392;SDS011;3229;42.674;23.282;2023-05-29T05:52:34;9.63;;;6.80;;
6392;SDS011;3229;42.674;23.282;2023-05-29T05:55:01;10.03;;;6.20;;
6392;SDS011;3229;42.674;23.282;2023-05-29T05:57:28;17.97;;;7.93;;
6392;SDS011;3229;42.674;23.282;2023-05-29T05:59:57;7.93;;;7.10;;
6392;SDS011;3229;42.674;23.282;2023-05-29T06:02:25;15.00;;;6.77;;
6392;SDS011;3229;42.674;23.282;2023-05-29T06:04:52;11.30;;;7.07;;
6392;SDS011;3229;42.674;23.282;2023-05-29T06:07:19;8.30;;;6.97;;
6392;SDS011;3229;42.674;23.282;2023-05-29T06:09:46;16.53;;;7.37;;
6392;SDS011;3229;42.674;23.282;2023-05-29T06:12:13;14.80;;;6.00;;
6392;SDS011;3229;42.674;23.282;2023-05-29T06:14:41;16.27;;;7.60;;
6392;SDS011;3229;42.674;23.282;2023-05-29T06:17:07;8.57;;;5.60;;
6392;SDS011;3229;42.674;23.282;2023-05-29T06:19:35;13.77;;;6.47;;
6392;SDS011;3229;42.674;23.282;2023-05-29T06:22:02;8.10;;;5.27;;
6392;SDS011;3229;42.674;23.282;2023-05-29T06:24:29;6.30;;;5.70;;
6392;SDS011;3229;42.674;23.282;2023-05-29T06:26:56;11.98;;;5.88;;
6392;SDS011;3229;42.674;23.282;2023-05-29T06:29:23;8.77;;;5.78;;
6392;SDS011;3229;42.674;23.282;2023-05-29T06:31:50;6.68;;;5.45;;
6392;SDS011;3229;42.674;23.282;2023-05-29T06:34:16;7.78;;;4.80;;
6392;SDS011;3229;42.674;23.282;2023-05-29T06:36:44;8.82;;;5.38;;
6392;SDS011;3229;42.674;23.282;2023-05-29T06:39:13;7.22;;;5.40;;
6392;SDS011;3229;42.674;23.282;2023-05-29T06:41:40;8.65;;;4.25;;
6392;SDS011;3229;42.674;23.282;2023-05-29T06:44:07;4.18;;;3.67;;
6392;SDS011;3229;42.674;23.282;2023-05-29T06:46:33;6.85;;;3.97;;
6392;SDS011;3229;42.674;23.282;2023-05-29T06:49:00;6.25;;;3.53;;
6392;SDS011;3229;42.674;23.282;2023-05-29T06:51:27;7.82;;;3.72;;
6392;SDS011;3229;42.674;23.282;2023-05-29T06:53:55;4.68;;;3.45;;
6392;SDS011;3229;42.674;23.282;2023-05-29T06:56:22;4.25;;;2.92;;
6392;SDS011;3229;42.674;23.282;2023-05-29T06:58:49;4.25;;;3.72;;
6392;SDS011;3229;42.674;23.282;2023-05-29T07:01:15;4.45;;;3.60;;
6392;SDS011;3229;42.674;23.282;2023-05-29T07:03:43;7.32;;;3.78;;
6392;SDS011;3229;42.674;23.282;2023-05-29T07:06:09;6.72;;;3.80;;
6392;SDS011;3229;42.674;23.282;2023-05-29T07:08:36;7.25;;;3.50;;
6392;SDS011;3229;42.674;23.282;2023-05-29T07:11:04;7.57;;;3.47;;
6392;SDS011;3229;42.674;23.282;2023-05-29T07:13:31;3.75;;;3.40;;
6392;SDS011;3229;42.674;23.282;2023-05-29T07:15:58;4.15;;;3.15;;
6392;SDS011;3229;42.674;23.282;2023-05-29T07:18:25;8.38;;;3.28;;
6392;SDS011;3229;42.674;23.282;2023-05-29T07:20:51;4.88;;;2.83;;
6392;SDS011;3229;42.674;23.282;2023-05-29T07:23:18;4.43;;;2.92;;
6392;SDS011;3229;42.674;23.282;2023-05-29T07:25:45;4.18;;;2.97;;
6392;SDS011;3229;42.674;23.282;2023-05-29T07:28:13;4.63;;;2.70;;
6392;SDS011;3229;42.674;23.282;2023-05-29T07:30:41;4.15;;;3.67;;
6392;SDS011;3229;42.674;23.282;2023-05-29T07:33:07;3.28;;;2.92;;
6392;SDS011;3229;42.674;23.282;2023-05-29T07:35:35;2.85;;;2.40;;
6392;SDS011;3229;42.674;23.282;2023-05-29T07:38:01;4.22;;;2.55;;
6392;SDS011;3229;42.674;23.282;2023-05-29T07:40:28;4.88;;;2.80;;
6392;SDS011;3229;42.674;23.282;2023-05-29T07:42:55;6.43;;;3.00;;
6392;SDS011;3229;42.674;23.282;2023-05-29T07:45:23;3.10;;;2.45;;
6392;SDS011;3229;42.674;23.282;2023-05-29T07:47:50;3.10;;;2.83;;
6392;SDS011;3229;42.674;23.282;2023-05-29T07:50:17;3.97;;;3.50;;
6392;SDS011;3229;42.674;23.282;2023-05-29T07:52:45;3.55;;;3.10;;
6392;SDS011;3229;42.674;23.282;2023-05-29T07:55:11;4.15;;;3.33;;
6392;SDS011;3229;42.674;23.282;2023-05-29T07:57:38;4.85;;;4.07;;
6392;SDS011;3229;42.674;23.282;2023-05-29T08:00:06;6.03;;;3.80;;
6392;SDS011;3229;42.674;23.282;2023-05-29T08:02:35;4.97;;;3.90;;
6392;SDS011;3229;42.674;23.282;2023-05-29T08:05:02;4.68;;;3.03;;
6392;SDS011;3229;42.674;23.282;2023-05-29T08:07:29;4.57;;;2.75;;
6392;SDS011;3229;42.674;23.282;2023-05-29T08:09:57;5.05;;;2.83;;
6392;SDS011;3229;42.674;23.282;2023-05-29T08:12:24;6.22;;;3.10;;
6392;SDS011;3229;42.674;23.282;2023-05-29T08:14:50;3.10;;;2.83;;
6392;SDS011;3229;42.674;23.282;2023-05-29T08:17:17;3.08;;;2.83;;
6392;SDS011;3229;42.674;23.282;2023-05-29T08:19:45;2.92;;;2.63;;
6392;SDS011;3229;42.674;23.282;2023-05-29T08:22:13;7.18;;;3.30;;
6392;SDS011;3229;42.674;23.282;2023-05-29T08:24:40;3.92;;;2.40;;
6392;SDS011;3229;42.674;23.282;2023-05-29T08:27:07;5.38;;;3.25;;
6392;SDS011;3229;42.674;23.282;2023-05-29T08:29:34;3.22;;;2.67;;
6392;SDS011;3229;42.674;23.282;2023-05-29T08:32:01;3.92;;;2.70;;
6392;SDS011;3229;42.674;23.282;2023-05-29T08:34:29;4.60;;;2.83;;
6392;SDS011;3229;42.674;23.282;2023-05-29T08:36:57;4.07;;;2.65;;
6392;SDS011;3229;42.674;23.282;2023-05-29T08:39:24;6.30;;;2.80;;
6392;SDS011;3229;42.674;23.282;2023-05-29T08:41:54;2.95;;;2.67;;
6392;SDS011;3229;42.674;23.282;2023-05-29T08:44:26;7.57;;;2.80;;
6392;SDS011;3229;42.674;23.282;2023-05-29T08:46:57;7.07;;;3.15;;
6392;SDS011;3229;42.674;23.282;2023-05-29T08:49:29;4.68;;;2.95;;
6392;SDS011;3229;42.674;23.282;2023-05-29T08:52:05;2.80;;;2.60;;
6392;SDS011;3229;42.674;23.282;2023-05-29T08:54:38;2.85;;;2.65;;
6392;SDS011;3229;42.674;23.282;2023-05-29T08:57:06;2.90;;;2.70;;
6392;SDS011;3229;42.674;23.282;2023-05-29T08:59:33;4.72;;;2.60;;
6392;SDS011;3229;42.674;23.282;2023-05-29T09:02:01;3.78;;;3.20;;
6392;SDS011;3229;42.674;23.282;2023-05-29T09:04:28;3.47;;;3.17;;
6392;SDS011;3229;42.674;23.282;2023-05-29T09:06:55;3.95;;;2.50;;
6392;SDS011;3229;42.674;23.282;2023-05-29T09:09:25;4.22;;;3.38;;
6392;SDS011;3229;42.674;23.282;2023-05-29T09:11:53;6.05;;;3.88;;
6392;SDS011;3229;42.674;23.282;2023-05-29T09:14:33;3.85;;;2.90;;
6392;SDS011;3229;42.674;23.282;2023-05-29T09:17:01;4.55;;;2.90;;
6392;SDS011;3229;42.674;23.282;2023-05-29T09:19:30;5.80;;;3.58;;
6392;SDS011;3229;42.674;23.282;2023-05-29T09:22:01;3.47;;;3.00;;
6392;SDS011;3229;42.674;23.282;2023-05-29T09:24:30;5.28;;;3.17;;
6392;SDS011;3229;42.674;23.282;2023-05-29T09:26:59;2.83;;;2.60;;
6392;SDS011;3229;42.674;23.282;2023-05-29T09:29:27;3.83;;;2.95;;
6392;SDS011;3229;42.674;23.282;2023-05-29T09:31:53;2.95;;;2.50;;
6392;SDS011;3229;42.674;23.282;2023-05-29T09:34:22;5.10;;;3.17;;
6392;SDS011;3229;42.674;23.282;2023-05-29T09:36:52;5.00;;;3.22;;
6392;SDS011;3229;42.674;23.282;2023-05-29T09:39:19;5.32;;;2.90;;
6392;SDS011;3229;42.674;23.282;2023-05-29T09:41:47;6.28;;;3.90;;
6392;SDS011;3229;42.674;23.282;2023-05-29T09:44:14;5.38;;;3.50;;
6392;SDS011;3229;42.674;23.282;2023-05-29T09:46:41;4.43;;;3.42;;
6392;SDS011;3229;42.674;23.282;2023-05-29T09:49:10;3.40;;;3.10;;
6392;SDS011;3229;42.674;23.282;2023-05-29T09:51:37;3.70;;;3.00;;
6392;SDS011;3229;42.674;23.282;2023-05-29T09:54:17;2.90;;;2.70;;
6392;SDS011;3229;42.674;23.282;2023-05-29T09:56:46;4.57;;;3.30;;
6392;SDS011;3229;42.674;23.282;2023-05-29T09:59:14;5.20;;;3.30;;
6392;SDS011;3229;42.674;23.282;2023-05-29T10:01:43;4.03;;;3.35;;
6392;SDS011;3229;42.674;23.282;2023-05-29T10:04:10;3.50;;;3.20;;
6392;SDS011;3229;42.674;23.282;2023-05-29T10:06:38;7.20;;;3.38;;
6392;SDS011;3229;42.674;23.282;2023-05-29T10:09:08;4.93;;;3.97;;
6392;SDS011;3229;42.674;23.282;2023-05-29T10:11:37;4.10;;;3.53;;
6392;SDS011;3229;42.674;23.282;2023-05-29T10:14:07;7.47;;;3.28;;
6392;SDS011;3229;42.674;23.282;2023-05-29T10:16:39;3.80;;;3.03;;
6392;SDS011;3229;42.674;23.282;2023-05-29T10:19:09;2.97;;;2.70;;
6392;SDS011;3229;42.674;23.282;2023-05-29T10:21:39;5.03;;;3.83;;
6392;SDS011;3229;42.674;23.282;2023-05-29T10:24:07;4.88;;;3.25;;
6392;SDS011;3229;42.674;23.282;2023-05-29T10:26:38;3.35;;;2.90;;
6392;SDS011;3229;42.674;23.282;2023-05-29T10:29:10;2.78;;;2.58;;
6392;SDS011;3229;42.674;23.282;2023-05-29T10:31:43;3.03;;;2.70;;
6392;SDS011;3229;42.674;23.282;2023-05-29T10:34:23;4.80;;;2.80;;
6392;SDS011;3229;42.674;23.282;2023-05-29T10:37:00;3.13;;;2.83;;
6392;SDS011;3229;42.674;23.282;2023-05-29T10:39:32;3.38;;;2.95;;
6392;SDS011;3229;42.674;23.282;2023-05-29T10:41:59;3.45;;;2.92;;
6392;SDS011;3229;42.674;23.282;2023-05-29T10:44:40;4.63;;;2.72;;
6392;SDS011;3229;42.674;23.282;2023-05-29T10:47:07;4.35;;;3.22;;
6392;SDS011;3229;42.674;23.282;2023-05-29T10:49:36;3.90;;;3.05;;
6392;SDS011;3229;42.674;23.282;2023-05-29T10:52:03;3.67;;;3.03;;
6392;SDS011;3229;42.674;23.282;2023-05-29T10:54:40;3.75;;;3.33;;
6392;SDS011;3229;42.674;23.282;2023-05-29T10:57:16;3.05;;;2.75;;
6392;SDS011;3229;42.674;23.282;2023-05-29T10:59:45;4.78;;;3.20;;
6392;SDS011;3229;42.674;23.282;2023-05-29T11:02:16;3.65;;;3.33;;
6392;SDS011;3229;42.674;23.282;2023-05-29T11:04:45;3.85;;;3.25;;
6392;SDS011;3229;42.674;23.282;2023-05-29T11:07:34;3.22;;;2.92;;
6392;SDS011;3229;42.674;23.282;2023-05-29T11:10:10;4.03;;;3.20;;
6392;SDS011;3229;42.674;23.282;2023-05-29T11:15:24;3.10;;;2.70;;
6392;SDS011;3229;42.674;23.282;2023-05-29T11:17:52;4.15;;;3.28;;
6392;SDS011;3229;42.674;23.282;2023-05-29T11:20:35;4.18;;;3.28;;
6392;SDS011;3229;42.674;23.282;2023-05-29T11:23:03;4.03;;;3.50;;
6392;SDS011;3229;42.674;23.282;2023-05-29T11:25:34;4.43;;;3.08;;
6392;SDS011;3229;42.674;23.282;2023-05-29T11:28:02;3.33;;;2.97;;
6392;SDS011;3229;42.674;23.282;2023-05-29T11:30:41;6.30;;;3.50;;
6392;SDS011;3229;42.674;23.282;2023-05-29T11:33:15;6.70;;;3.58;;
6392;SDS011;3229;42.674;23.282;2023-05-29T11:35:50;3.72;;;2.85;;
6392;SDS011;3229;42.674;23.282;2023-05-29T11:38:22;7.15;;;3.70;;
6392;SDS011;3229;42.674;23.282;2023-05-29T11:40:49;3.78;;;2.90;;
6392;SDS011;3229;42.674;23.282;2023-05-29T11:43:16;4.10;;;3.25;;
6392;SDS011;3229;42.674;23.282;2023-05-29T11:45:44;7.20;;;3.75;;
6392;SDS011;3229;42.674;23.282;2023-05-29T11:48:11;5.25;;;3.75;;
6392;SDS011;3229;42.674;23.282;2023-05-29T11:50:38;3.50;;;3.10;;
6392;SDS011;3229;42.674;23.282;2023-05-29T11:53:05;3.05;;;2.75;;
6392;SDS011;3229;42.674;23.282;2023-05-29T11:55:33;5.93;;;3.22;;
6392;SDS011;3229;42.674;23.282;2023-05-29T11:58:01;8.73;;;3.78;;
6392;SDS011;3229;42.674;23.282;2023-05-29T12:00:30;6.22;;;3.58;;
6392;SDS011;3229;42.674;23.282;2023-05-29T12:03:00;3.67;;;3.38;;
6392;SDS011;3229;42.674;23.282;2023-05-29T12:05:29;3.30;;;3.00;;
6392;SDS011;3229;42.674;23.282;2023-05-29T12:07:57;3.28;;;2.97;;
6392;SDS011;3229;42.674;23.282;2023-05-29T12:10:26;3.70;;;3.20;;
6392;SDS011;3229;42.674;23.282;2023-05-29T12:12:54;6.47;;;3.83;;
6392;SDS011;3229;42.674;23.282;2023-05-29T12:15:22;4.68;;;3.72;;
6392;SDS011;3229;42.674;23.282;2023-05-29T12:17:49;7.78;;;3.33;;
6392;SDS011;3229;42.674;23.282;2023-05-29T12:20:18;6.97;;;3.20;;
6392;SDS011;3229;42.674;23.282;2023-05-29T12:22:47;5.78;;;3.13;;
6392;SDS011;3229;42.674;23.282;2023-05-29T12:25:15;9.98;;;3.92;;
6392;SDS011;3229;42.674;23.282;2023-05-29T12:27:44;3.85;;;3.00;;
6392;SDS011;3229;42.674;23.282;2023-05-29T12:30:13;4.68;;;3.58;;
6392;SDS011;3229;42.674;23.282;2023-05-29T12:32:46;6.13;;;3.15;;
6392;SDS011;3229;42.674;23.282;2023-05-29T12:35:15;8.55;;;3.53;;
6392;SDS011;3229;42.674;23.282;2023-05-29T12:37:45;5.20;;;3.72;;
6392;SDS011;3229;42.674;23.282;2023-05-29T12:40:19;6.13;;;3.17;;
6392;SDS011;3229;42.674;23.282;2023-05-29T12:42:47;5.78;;;4.13;;
6392;SDS011;3229;42.674;23.282;2023-05-29T12:45:15;14.20;;;5.10;;
6392;SDS011;3229;42.674;23.282;2023-05-29T12:47:50;6.28;;;4.55;;
6392;SDS011;3229;42.674;23.282;2023-05-29T12:50:24;10.80;;;4.78;;
6392;SDS011;3229;42.674;23.282;2023-05-29T12:52:56;7.63;;;4.43;;
6392;SDS011;3229;42.674;23.282;2023-05-29T12:55:24;7.47;;;4.90;;
6392;SDS011;3229;42.674;23.282;2023-05-29T12:57:52;4.80;;;4.30;;
6392;SDS011;3229;42.674;23.282;2023-05-29T13:00:20;8.93;;;4.32;;
6392;SDS011;3229;42.674;23.282;2023-05-29T13:02:47;4.65;;;3.90;;
6392;SDS011;3229;42.674;23.282;2023-05-29T13:05:14;7.82;;;4.47;;
6392;SDS011;3229;42.674;23.282;2023-05-29T13:07:43;3.80;;;3.47;;
6392;SDS011;3229;42.674;23.282;2023-05-29T13:10:13;6.55;;;3.90;;
6392;SDS011;3229;42.674;23.282;2023-05-29T13:12:40;3.88;;;3.15;;
6392;SDS011;3229;42.674;23.282;2023-05-29T13:15:07;7.00;;;3.88;;
6392;SDS011;3229;42.674;23.282;2023-05-29T13:17:36;5.28;;;3.42;;
6392;SDS011;3229;42.674;23.282;2023-05-29T13:20:06;5.22;;;4.07;;
6392;SDS011;3229;42.674;23.282;2023-05-29T13:22:35;4.22;;;3.72;;
6392;SDS011;3229;42.674;23.282;2023-05-29T13:25:02;3.80;;;3.42;;
6392;SDS011;3229;42.674;23.282;2023-05-29T13:27:32;5.50;;;4.18;;
6392;SDS011;3229;42.674;23.282;2023-05-29T13:30:00;6.15;;;4.03;;
6392;SDS011;3229;42.674;23.282;2023-05-29T13:32:28;4.35;;;3.92;;
6392;SDS011;3229;42.674;23.282;2023-05-29T13:34:54;3.88;;;3.58;;
6392;SDS011;3229;42.674;23.282;2023-05-29T13:37:22;4.20;;;3.30;;
6392;SDS011;3229;42.674;23.282;2023-05-29T13:39:48;4.80;;;4.30;;
6392;SDS011;3229;42.674;23.282;2023-05-29T13:42:16;4.13;;;3.72;;
6392;SDS011;3229;42.674;23.282;2023-05-29T13:44:45;4.93;;;4.22;;
6392;SDS011;3229;42.674;23.282;2023-05-29T13:47:12;5.38;;;4.13;;
6392;SDS011;3229;42.674;23.282;2023-05-29T13:49:39;4.40;;;3.88;;
6392;SDS011;3229;42.674;23.282;2023-05-29T13:52:06;15.23;;;3.67;;
6392;SDS011;3229;42.674;23.282;2023-05-29T13:54:33;4.95;;;4.00;;
6392;SDS011;3229;42.674;23.282;2023-05-29T13:57:01;4.03;;;3.65;;
6392;SDS011;3229;42.674;23.282;2023-05-29T13:59:28;6.55;;;4.57;;
6392;SDS011;3229;42.674;23.282;2023-05-29T14:01:57;7.88;;;3.88;;
6392;SDS011;3229;42.674;23.282;2023-05-29T14:04:23;5.80;;;4.15;;
6392;SDS011;3229;42.674;23.282;2023-05-29T14:06:50;4.88;;;4.25;;
6392;SDS011;3229;42.674;23.282;2023-05-29T14:09:17;4.75;;;4.35;;
6392;SDS011;3229;42.674;23.282;2023-05-29T14:11:51;9.98;;;4.38;;
6392;SDS011;3229;42.674;23.282;2023-05-29T14:14:18;8.73;;;4.28;;
6392;SDS011;3229;42.674;23.282;2023-05-29T14:16:45;4.90;;;3.33;;
6392;SDS011;3229;42.674;23.282;2023-05-29T14:19:13;2.53;;;2.17;;
6392;SDS011;3229;42.674;23.282;2023-05-29T14:21:40;3.70;;;2.22;;
6392;SDS011;3229;42.674;23.282;2023-05-29T14:24:07;2.35;;;2.17;;
6392;SDS011;3229;42.674;23.282;2023-05-29T14:26:34;2.45;;;2.22;;
6392;SDS011;3229;42.674;23.282;2023-05-29T14:29:01;2.17;;;1.98;;
6392;SDS011;3229;42.674;23.282;2023-05-29T14:31:28;4.65;;;3.40;;
6392;SDS011;3229;42.674;23.282;2023-05-29T14:33:57;5.25;;;2.75;;
6392;SDS011;3229;42.674;23.282;2023-05-29T14:36:25;3.45;;;2.30;;
6392;SDS011;3229;42.674;23.282;2023-05-29T14:38:52;6.80;;;4.10;;
6392;SDS011;3229;42.674;23.282;2023-05-29T14:41:19;5.80;;;3.65;;
6392;SDS011;3229;42.674;23.282;2023-05-29T14:43:45;2.80;;;2.58;;
6392;SDS011;3229;42.674;23.282;2023-05-29T14:46:12;4.22;;;2.70;;
6392;SDS011;3229;42.674;23.282;2023-05-29T14:48:39;3.70;;;2.03;;
6392;SDS011;3229;42.674;23.282;2023-05-29T14:51:06;4.95;;;2.92;;
6392;SDS011;3229;42.674;23.282;2023-05-29T14:53:35;4.05;;;2.55;;
6392;SDS011;3229;42.674;23.282;2023-05-29T14:56:03;5.90;;;3.58;;
6392;SDS011;3229;42.674;23.282;2023-05-29T14:58:31;2.47;;;2.28;;
6392;SDS011;3229;42.674;23.282;2023-05-29T15:00:58;2.63;;;2.30;;
6392;SDS011;3229;42.674;23.282;2023-05-29T15:03:25;4.15;;;2.70;;
6392;SDS011;3229;42.674;23.282;2023-05-29T15:05:52;2.72;;;2.53;;
6392;SDS011;3229;42.674;23.282;2023-05-29T15:08:19;6.30;;;2.55;;